createdAt,value
2023-05-03T00:01:33.630Z,12.00
2023-05-03T00:04:01.576Z,12.07
2023-05-03T00:06:30.010Z,11.90
2023-05-03T00:08:57.926Z,11.96
2023-05-03T00:11:26.248Z,11.99
2023-05-03T00:13:54.196Z,11.93
2023-05-03T00:16:22.112Z,11.93
2023-05-03T00:18:49.994Z,12.05
2023-05-03T00:21:17.830Z,12.08
2023-05-03T00:23:45.719Z,12.01
2023-05-03T00:26:13.631Z,11.94
2023-05-03T00:28:42.362Z,11.99
2023-05-03T00:31:11.323Z,12.02
2023-05-03T00:33:40.094Z,12.02
2023-05-03T00:36:12.628Z,12.04
2023-05-03T00:38:42.061Z,11.97
2023-05-03T00:41:11.150Z,11.91
2023-05-03T00:43:39.020Z,11.93
2023-05-03T00:46:16.585Z,11.83
2023-05-03T00:48:48.247Z,11.94
2023-05-03T00:51:16.340Z,11.96
2023-05-03T00:53:44.297Z,11.98
2023-05-03T00:56:12.324Z,12.02
2023-05-03T00:58:40.975Z,11.90
2023-05-03T01:01:09.359Z,12.03
2023-05-03T01:03:41.957Z,11.97
2023-05-03T01:06:25.846Z,11.96
2023-05-03T01:09:06.663Z,11.99
2023-05-03T01:11:47.993Z,11.93
2023-05-03T01:14:40.618Z,11.91
2023-05-03T01:17:15.593Z,11.88
2023-05-03T01:19:52.004Z,11.93
2023-05-03T01:22:41.435Z,11.92
2023-05-03T01:25:11.608Z,11.93
2023-05-03T01:27:41.893Z,11.89
2023-05-03T01:30:12.298Z,11.90
2023-05-03T01:32:54.630Z,11.93
2023-05-03T01:35:25.633Z,11.95
2023-05-03T01:37:57.293Z,11.86
2023-05-03T01:40:28.764Z,11.81
2023-05-03T01:42:57.663Z,11.82
2023-05-03T01:45:26.658Z,11.76
2023-05-03T01:47:56.500Z,11.84
2023-05-03T01:50:24.376Z,11.82
2023-05-03T01:52:53.294Z,11.81
2023-05-03T01:55:21.204Z,11.80
2023-05-03T01:57:49.065Z,11.80
2023-05-03T02:00:17.063Z,11.82
2023-05-03T02:02:45.289Z,11.76
2023-05-03T02:05:13.796Z,11.75
2023-05-03T02:07:41.693Z,11.76
2023-05-03T02:10:14.463Z,11.72
2023-05-03T02:12:45.824Z,11.70
2023-05-03T02:15:14.575Z,11.77
2023-05-03T02:17:43.145Z,11.74
2023-05-03T02:20:12.565Z,11.72
2023-05-03T02:22:40.511Z,11.77
2023-05-03T02:25:08.412Z,11.75
2023-05-03T02:27:36.262Z,11.81
2023-05-03T02:30:05.630Z,11.83
2023-05-03T02:32:39.701Z,11.72
2023-05-03T02:35:08.544Z,11.69
2023-05-03T02:37:36.813Z,11.72
2023-05-03T02:40:09.970Z,11.84
2023-05-03T02:42:38.420Z,11.77
2023-05-03T02:45:08.631Z,11.72
2023-05-03T02:47:36.869Z,11.72
2023-05-03T02:50:06.542Z,11.72
2023-05-03T02:52:38.191Z,11.71
2023-05-03T02:55:06.651Z,11.66
2023-05-03T02:57:35.114Z,11.66
2023-05-03T03:00:05.992Z,11.74
2023-05-03T03:02:34.487Z,11.64
2023-05-03T03:05:02.438Z,11.53
2023-05-03T03:07:30.302Z,11.66
2023-05-03T03:09:59.075Z,11.60
2023-05-03T03:12:29.229Z,11.56
2023-05-03T03:14:57.721Z,11.54
2023-05-03T03:17:26.189Z,11.46
2023-05-03T03:19:54.045Z,11.66
2023-05-03T03:22:21.907Z,11.57
2023-05-03T03:24:49.795Z,11.52
2023-05-03T03:27:17.773Z,11.47
2023-05-03T03:29:45.776Z,11.44
2023-05-03T03:32:15.547Z,11.60
2023-05-03T03:34:43.999Z,11.58
2023-05-03T03:37:11.923Z,11.59
2023-05-03T03:39:42.507Z,11.62
2023-05-03T03:42:13.652Z,11.55
2023-05-03T03:44:41.848Z,11.57
2023-05-03T03:47:10.178Z,11.59
2023-05-03T03:49:38.230Z,11.57
2023-05-03T03:52:06.854Z,11.66
2023-05-03T03:54:36.871Z,11.64
2023-05-03T03:57:05.076Z,11.63
2023-05-03T03:59:34.255Z,11.62
2023-05-03T04:02:02.254Z,11.61
2023-05-03T04:04:31.820Z,11.57
2023-05-03T04:07:00.058Z,11.59
2023-05-03T04:09:29.038Z,11.57
2023-05-03T04:11:57.484Z,11.51
2023-05-03T04:14:25.372Z,11.55
2023-05-03T04:16:54.555Z,11.62
2023-05-03T04:19:23.792Z,11.64
2023-05-03T04:21:52.305Z,11.64
2023-05-03T04:24:22.088Z,11.68
2023-05-03T04:26:51.789Z,11.75
2023-05-03T04:29:27.196Z,11.77
2023-05-03T04:31:55.208Z,11.65
2023-05-03T04:34:23.596Z,11.77
2023-05-03T04:36:54.697Z,11.77
2023-05-03T04:39:23.106Z,11.81
2023-05-03T04:41:51.380Z,11.84
2023-05-03T04:44:19.488Z,11.79
2023-05-03T04:46:51.257Z,11.85
2023-05-03T04:49:19.584Z,11.81
2023-05-03T04:51:47.490Z,11.82
2023-05-03T04:54:15.585Z,11.84
2023-05-03T04:56:43.489Z,11.86
2023-05-03T04:59:16.687Z,11.80
2023-05-03T05:01:44.674Z,11.80
2023-05-03T05:04:13.118Z,11.77
2023-05-03T05:06:51.695Z,11.63
2023-05-03T05:09:23.619Z,11.82
2023-05-03T05:11:56.134Z,11.79
2023-05-03T05:14:30.965Z,11.77
2023-05-03T05:16:59.926Z,11.79
2023-05-03T05:19:28.235Z,11.79
2023-05-03T05:21:56.609Z,11.76
2023-05-03T05:24:28.452Z,11.76
2023-05-03T05:26:57.112Z,11.78
2023-05-03T05:29:25.128Z,11.78
2023-05-03T05:31:53.647Z,11.76
2023-05-03T05:34:21.951Z,11.81
2023-05-03T05:36:52.270Z,11.77
2023-05-03T05:39:23.187Z,11.79
2023-05-03T05:41:52.122Z,11.86
2023-05-03T05:44:20.116Z,11.79
2023-05-03T05:46:49.938Z,11.88
2023-05-03T05:49:19.363Z,11.87
2023-05-03T05:51:47.357Z,11.90
2023-05-03T05:54:16.273Z,11.91
2023-05-03T05:56:44.866Z,11.90
2023-05-03T05:59:12.847Z,11.92
2023-05-03T06:01:44.648Z,11.80
2023-05-03T06:04:13.800Z,11.97
2023-05-03T06:06:42.220Z,12.01
2023-05-03T06:09:23.392Z,12.01
2023-05-03T06:11:53.911Z,12.04
2023-05-03T06:14:21.888Z,12.08
2023-05-03T06:16:51.516Z,12.13
2023-05-03T06:19:19.421Z,12.12
2023-05-03T06:21:47.288Z,12.16
2023-05-03T06:24:21.293Z,12.12
2023-05-03T06:26:53.252Z,12.16
2023-05-03T06:29:21.580Z,12.18
2023-05-03T06:31:49.424Z,12.20
2023-05-03T06:34:24.148Z,12.26
2023-05-03T06:36:55.463Z,12.22
2023-05-03T06:39:23.816Z,12.33
2023-05-03T06:41:52.171Z,12.34
2023-05-03T06:44:20.338Z,12.30
2023-05-03T06:46:48.197Z,12.40
2023-05-03T06:49:16.650Z,12.46
2023-05-03T06:51:44.536Z,12.58
2023-05-03T06:54:12.526Z,12.61
2023-05-03T06:56:40.608Z,12.64
2023-05-03T06:59:08.537Z,12.58
2023-05-03T07:01:36.792Z,12.69
2023-05-03T07:04:05.044Z,12.71
2023-05-03T07:06:40.781Z,12.67
2023-05-03T07:09:17.797Z,12.66
2023-05-03T07:11:50.366Z,12.62
2023-05-03T07:14:18.316Z,12.66
2023-05-03T07:16:46.324Z,12.62
2023-05-03T07:19:14.283Z,12.67
2023-05-03T07:21:42.506Z,12.69
2023-05-03T07:24:12.830Z,12.70
2023-05-03T07:26:41.946Z,12.66
2023-05-03T07:29:10.941Z,12.81
2023-05-03T07:31:38.867Z,12.79
2023-05-03T07:34:07.419Z,12.79
2023-05-03T07:36:35.316Z,12.76
2023-05-03T07:39:04.886Z,12.88
2023-05-03T07:41:32.818Z,12.92
2023-05-03T07:44:00.800Z,12.88
2023-05-03T07:46:28.823Z,13.02
2023-05-03T07:48:58.268Z,13.03
2023-05-03T07:51:26.897Z,13.03
2023-05-03T07:53:56.352Z,13.15
2023-05-03T07:56:24.317Z,13.14
2023-05-03T07:59:04.550Z,13.16
2023-05-03T08:01:36.927Z,13.11
2023-05-03T08:04:05.197Z,13.06
2023-05-03T08:06:35.507Z,13.10
2023-05-03T08:09:04.890Z,13.11
2023-05-03T08:11:33.028Z,13.14
2023-05-03T08:14:00.969Z,13.10
2023-05-03T08:16:28.852Z,13.17
2023-05-03T08:18:56.821Z,13.26
2023-05-03T08:21:25.090Z,13.33
2023-05-03T08:23:53.340Z,13.37
2023-05-03T08:26:22.168Z,13.39
2023-05-03T08:28:50.414Z,13.38
2023-05-03T08:31:18.269Z,13.43
2023-05-03T08:33:46.340Z,13.45
2023-05-03T08:36:14.190Z,13.41
2023-05-03T08:38:42.426Z,13.46
2023-05-03T08:41:30.186Z,13.52
2023-05-03T08:44:00.582Z,13.49
2023-05-03T08:46:29.240Z,13.53
2023-05-03T08:48:58.987Z,13.56
2023-05-03T08:51:28.304Z,13.66
2023-05-03T08:53:56.222Z,13.72
2023-05-03T08:56:30.280Z,13.74
2023-05-03T08:59:05.044Z,13.74
2023-05-03T09:01:33.929Z,13.88
2023-05-03T09:04:02.243Z,13.79
2023-05-03T09:06:33.204Z,13.98
2023-05-03T09:09:05.323Z,13.87
2023-05-03T09:11:34.673Z,13.90
2023-05-03T09:14:17.115Z,13.87
2023-05-03T09:16:47.085Z,14.01
2023-05-03T09:19:16.396Z,14.04
2023-05-03T09:21:47.303Z,14.21
2023-05-03T09:24:19.134Z,14.27
2023-05-03T09:26:49.130Z,14.15
2023-05-03T09:29:34.170Z,14.17
2023-05-03T09:32:05.688Z,14.15
2023-05-03T09:34:34.781Z,14.24
2023-05-03T09:37:02.726Z,14.24
2023-05-03T09:39:30.892Z,14.36
2023-05-03T09:41:58.778Z,14.36
2023-05-03T09:44:41.924Z,14.39
2023-05-03T09:47:10.712Z,14.42
2023-05-03T09:49:39.292Z,14.36
2023-05-03T09:52:08.746Z,14.47
2023-05-03T09:54:37.955Z,14.48
2023-05-03T09:57:07.510Z,14.49
2023-05-03T09:59:37.237Z,14.45
2023-05-03T10:02:07.717Z,14.39
2023-05-03T10:04:49.479Z,14.41
2023-05-03T10:07:18.740Z,14.43
2023-05-03T10:09:48.156Z,14.33
2023-05-03T10:12:17.557Z,14.50
2023-05-03T10:14:47.957Z,14.59
2023-05-03T10:17:46.385Z,14.66
2023-05-03T10:20:31.532Z,14.82
2023-05-03T10:23:05.729Z,14.69
2023-05-03T10:25:35.951Z,14.87
2023-05-03T10:28:04.840Z,14.83
2023-05-03T10:30:40.464Z,14.86
2023-05-03T10:33:14.581Z,14.74
2023-05-03T10:35:49.325Z,14.62
2023-05-03T10:38:24.150Z,14.53
2023-05-03T10:40:53.126Z,14.68
2023-05-03T10:43:30.333Z,14.78
2023-05-03T10:45:58.279Z,14.78
2023-05-03T10:48:26.620Z,14.78
2023-05-03T10:50:55.798Z,14.98
2023-05-03T10:53:36.819Z,15.12
2023-05-03T10:56:11.079Z,15.12
2023-05-03T10:58:50.126Z,14.98
2023-05-03T11:01:19.603Z,15.05
2023-05-03T11:04:09.827Z,14.95
2023-05-03T11:06:41.320Z,15.10
2023-05-03T11:09:12.240Z,15.54
2023-05-03T11:11:41.924Z,15.53
2023-05-03T11:14:10.438Z,15.61
2023-05-03T11:16:48.235Z,15.53
2023-05-03T11:19:16.483Z,15.46
2023-05-03T11:21:46.442Z,15.51
2023-05-03T11:24:15.559Z,15.37
2023-05-03T11:26:43.614Z,15.38
2023-05-03T11:29:13.100Z,15.21
2023-05-03T11:31:43.312Z,15.26
2023-05-03T11:34:12.698Z,15.34
2023-05-03T11:36:41.905Z,15.31
2023-05-03T11:39:11.736Z,15.34
2023-05-03T11:41:39.608Z,15.37
2023-05-03T11:44:17.033Z,15.24
2023-05-03T11:46:48.206Z,15.31
2023-05-03T11:49:19.928Z,15.29
2023-05-03T11:51:51.609Z,15.26
2023-05-03T11:54:26.391Z,15.89
2023-05-03T11:56:59.104Z,16.41
2023-05-03T11:59:40.497Z,15.84
2023-05-03T12:02:13.937Z,15.84
2023-05-03T12:04:45.059Z,16.20
2023-05-03T12:07:14.917Z,15.89
2023-05-03T12:09:45.541Z,15.65
2023-05-03T12:12:24.164Z,15.47
2023-05-03T12:15:03.475Z,15.32
2023-05-03T12:17:39.625Z,15.33
2023-05-03T12:21:03.934Z,15.29
2023-05-03T12:23:09.987Z,15.14
2023-05-03T12:25:39.597Z,15.17
2023-05-03T12:30:40.769Z,15.16
2023-05-03T12:33:10.561Z,15.10
2023-05-03T12:35:40.973Z,15.13
2023-05-03T12:38:10.622Z,15.19
2023-05-03T12:40:39.504Z,15.36
2023-05-03T12:43:07.819Z,15.70
2023-05-03T12:45:39.981Z,16.16
2023-05-03T12:48:09.343Z,16.49
2023-05-03T12:50:39.411Z,16.51
2023-05-03T12:53:09.996Z,16.49
2023-05-03T12:55:43.608Z,16.46
2023-05-03T12:58:43.202Z,16.61
2023-05-03T13:03:33.843Z,16.41
2023-05-03T13:06:12.500Z,16.22
2023-05-03T13:08:49.408Z,16.00
2023-05-03T13:11:21.566Z,15.94
2023-05-03T13:13:49.549Z,16.06
2023-05-03T13:16:17.499Z,16.07
2023-05-03T13:18:45.852Z,16.48
2023-05-03T13:21:13.723Z,17.05
2023-05-03T13:23:41.558Z,16.83
2023-05-03T13:26:09.545Z,16.90
2023-05-03T13:28:37.461Z,16.90
2023-05-03T13:31:06.138Z,17.03
2023-05-03T13:33:38.028Z,17.12
2023-05-03T13:36:06.212Z,16.64
2023-05-03T13:38:35.439Z,16.24
2023-05-03T13:41:08.517Z,16.06
2023-05-03T13:43:36.543Z,15.87
2023-05-03T13:46:04.677Z,15.78
2023-05-03T13:48:32.846Z,15.67
2023-05-03T13:51:00.791Z,15.60
2023-05-03T13:53:28.643Z,15.50
2023-05-03T13:55:56.549Z,15.53
2023-05-03T13:58:24.467Z,15.64
2023-05-03T14:00:52.299Z,15.55
2023-05-03T14:03:20.292Z,15.45
2023-05-03T14:05:48.474Z,15.45
2023-05-03T14:08:16.967Z,15.42
2023-05-03T14:10:44.918Z,15.38
2023-05-03T14:13:13.312Z,15.42
2023-05-03T14:15:45.446Z,15.30
2023-05-03T14:18:13.564Z,15.26
2023-05-03T14:20:41.622Z,15.31
2023-05-03T14:23:09.735Z,15.27
2023-05-03T14:25:37.554Z,15.32
2023-05-03T14:28:05.464Z,15.26
2023-05-03T14:30:33.656Z,15.08
2023-05-03T14:33:01.733Z,15.10
2023-05-03T14:35:29.784Z,15.10
2023-05-03T14:37:57.770Z,15.10
2023-05-03T14:40:25.696Z,15.14
2023-05-03T14:42:54.771Z,15.12
2023-05-03T14:45:22.984Z,15.15
2023-05-03T14:47:51.090Z,15.15
2023-05-03T14:50:19.376Z,15.17
2023-05-03T14:52:47.321Z,15.18
2023-05-03T14:55:16.356Z,15.11
2023-05-03T14:57:44.204Z,15.18
2023-05-03T15:00:15.254Z,15.23
2023-05-03T15:02:43.447Z,15.09
2023-05-03T15:05:12.769Z,15.10
2023-05-03T15:07:40.792Z,15.13
2023-05-03T15:10:09.127Z,15.16
2023-05-03T15:12:39.104Z,15.13
2023-05-03T15:15:08.237Z,15.02
2023-05-03T15:17:37.533Z,15.14
2023-05-03T15:20:07.831Z,15.06
2023-05-03T15:22:37.066Z,14.96
2023-05-03T15:25:05.642Z,15.03
2023-05-03T15:27:34.760Z,15.12
2023-05-03T15:30:05.684Z,15.03
2023-05-03T15:32:33.951Z,14.95
2023-05-03T15:35:02.118Z,15.00
2023-05-03T15:37:37.617Z,15.06
2023-05-03T15:40:09.240Z,15.09
2023-05-03T15:42:38.155Z,15.08
2023-05-03T15:45:08.099Z,15.16
2023-05-03T15:47:36.034Z,15.15
2023-05-03T15:50:06.336Z,15.10
2023-05-03T15:52:34.967Z,15.10
2023-05-03T15:55:03.057Z,15.16
2023-05-03T15:57:31.877Z,15.17
2023-05-03T15:59:59.717Z,15.17
2023-05-03T16:02:27.720Z,15.17
2023-05-03T16:04:57.791Z,15.18
2023-05-03T16:07:26.936Z,15.19
2023-05-03T16:09:54.825Z,15.15
2023-05-03T16:12:23.693Z,15.20
2023-05-03T16:14:51.689Z,15.22
2023-05-03T16:17:19.579Z,15.18
2023-05-03T16:19:47.809Z,15.23
2023-05-03T16:22:17.101Z,15.23
2023-05-03T16:24:46.854Z,15.22
2023-05-03T16:27:14.834Z,15.26
2023-05-03T16:29:42.696Z,15.28
2023-05-03T16:32:11.170Z,15.30
2023-05-03T16:34:39.379Z,15.26
2023-05-03T16:37:07.246Z,15.30
2023-05-03T16:39:35.155Z,15.17
2023-05-03T16:42:03.218Z,15.33
2023-05-03T16:44:31.268Z,15.33
2023-05-03T16:46:59.090Z,15.32
2023-05-03T16:49:27.474Z,15.24
2023-05-03T16:51:56.663Z,15.30
2023-05-03T16:54:24.558Z,15.26
2023-05-03T16:56:52.632Z,15.12
2023-05-03T16:59:20.517Z,15.11
2023-05-03T17:01:48.487Z,14.99
2023-05-03T17:04:16.381Z,15.09
2023-05-03T17:06:44.282Z,15.08
2023-05-03T17:09:14.154Z,15.12
2023-05-03T17:11:42.080Z,15.10
2023-05-03T17:14:09.960Z,15.07
2023-05-03T17:16:41.222Z,15.05
2023-05-03T17:19:11.887Z,14.98
2023-05-03T17:21:39.825Z,15.02
2023-05-03T17:24:07.805Z,14.98
2023-05-03T17:26:36.018Z,14.96
2023-05-03T17:29:03.953Z,14.90
2023-05-03T17:31:31.880Z,14.84
2023-05-03T17:34:00.393Z,14.75
2023-05-03T17:36:29.294Z,14.85
2023-05-03T17:38:57.493Z,14.80
2023-05-03T17:41:26.500Z,14.76
2023-05-03T17:43:55.251Z,14.76
2023-05-03T17:46:23.229Z,14.71
2023-05-03T17:48:52.156Z,14.64
2023-05-03T17:51:20.101Z,14.66
2023-05-03T17:53:48.144Z,14.59
2023-05-03T17:56:18.926Z,14.60
2023-05-03T17:58:47.261Z,14.47
2023-05-03T18:01:16.045Z,14.57
2023-05-03T18:03:44.302Z,14.48
2023-05-03T18:06:13.650Z,14.44
2023-05-03T18:08:42.082Z,14.44
2023-05-03T18:11:10.023Z,14.47
2023-05-03T18:13:38.057Z,14.46
2023-05-03T18:16:09.900Z,14.37
2023-05-03T18:18:37.984Z,14.35
2023-05-03T18:21:06.094Z,14.33
2023-05-03T18:23:35.248Z,14.25
2023-05-03T18:26:03.863Z,14.19
2023-05-03T18:28:31.834Z,14.15
2023-05-03T18:30:59.740Z,14.05
2023-05-03T18:33:27.627Z,14.01
2023-05-03T18:35:55.672Z,13.92
2023-05-03T18:38:23.516Z,13.89
2023-05-03T18:40:51.620Z,13.67
2023-05-03T18:43:19.490Z,13.76
2023-05-03T18:45:47.851Z,13.75
2023-05-03T18:48:16.381Z,13.88
2023-05-03T18:50:45.232Z,13.91
2023-05-03T18:53:13.962Z,13.95
2023-05-03T18:55:42.437Z,13.88
2023-05-03T18:58:10.269Z,13.93
2023-05-03T19:00:38.265Z,13.94
2023-05-03T19:03:06.484Z,13.97
2023-05-03T19:05:34.873Z,14.00
2023-05-03T19:08:02.750Z,13.96
2023-05-03T19:10:30.773Z,13.91
2023-05-03T19:12:58.654Z,13.89
2023-05-03T19:15:27.076Z,13.72
2023-05-03T19:17:55.130Z,13.60
2023-05-03T19:20:22.939Z,13.65
2023-05-03T19:22:50.908Z,13.57
2023-05-03T19:25:18.844Z,13.65
2023-05-03T19:27:46.647Z,13.65
2023-05-03T19:30:14.632Z,13.63
2023-05-03T19:32:42.721Z,13.54
2023-05-03T19:35:10.684Z,13.58
2023-05-03T19:37:38.783Z,13.46
2023-05-03T19:40:07.385Z,13.41
2023-05-03T19:42:35.351Z,13.45
2023-05-03T19:45:03.977Z,13.38
2023-05-03T19:47:33.123Z,13.36
2023-05-03T19:50:01.409Z,13.27
2023-05-03T19:52:29.347Z,13.19
2023-05-03T19:54:57.943Z,13.16
2023-05-03T19:57:25.840Z,13.11
2023-05-03T19:59:53.724Z,13.11
2023-05-03T20:02:23.380Z,13.09
2023-05-03T20:04:53.035Z,13.16
2023-05-03T20:07:21.048Z,13.20
2023-05-03T20:09:48.856Z,13.17
2023-05-03T20:12:16.880Z,13.10
2023-05-03T20:14:44.737Z,13.16
2023-05-03T20:17:12.600Z,13.02
2023-05-03T20:19:40.502Z,13.06
2023-05-03T20:22:08.507Z,13.05
2023-05-03T20:24:36.399Z,13.02
2023-05-03T20:27:04.423Z,12.91
2023-05-03T20:29:32.290Z,12.90
2023-05-03T20:32:00.673Z,12.87
2023-05-03T20:34:28.887Z,12.79
2023-05-03T20:36:57.252Z,12.78
2023-05-03T20:39:25.098Z,12.77
2023-05-03T20:41:52.955Z,12.73
2023-05-03T20:44:20.961Z,12.68
2023-05-03T20:46:48.819Z,12.73
2023-05-03T20:49:16.689Z,12.63
2023-05-03T20:51:44.575Z,12.57
2023-05-03T20:54:12.511Z,12.55
2023-05-03T20:56:40.469Z,12.45
2023-05-03T20:59:08.295Z,12.26
2023-05-03T21:01:40.097Z,12.35
2023-05-03T21:04:08.628Z,12.26
2023-05-03T21:06:38.262Z,12.00
2023-05-03T21:09:06.265Z,12.19
2023-05-03T21:11:34.092Z,12.12
2023-05-03T21:14:02.221Z,12.15
2023-05-03T21:16:30.248Z,12.07
2023-05-03T21:18:58.115Z,12.03
2023-05-03T21:21:26.164Z,12.00
2023-05-03T21:23:54.033Z,11.80
2023-05-03T21:26:22.243Z,11.69
2023-05-03T21:28:50.393Z,11.80
2023-05-03T21:31:18.367Z,11.77
2023-05-03T21:33:46.221Z,11.73
2023-05-03T21:36:14.190Z,11.78
2023-05-03T21:38:42.082Z,11.70
2023-05-03T21:41:10.131Z,11.75
2023-05-03T21:43:38.049Z,11.65
2023-05-03T21:46:08.826Z,11.69
2023-05-03T21:48:37.373Z,11.68
2023-05-03T21:51:05.372Z,11.63
2023-05-03T21:53:35.376Z,11.61
2023-05-03T21:56:03.491Z,11.57
2023-05-03T21:58:31.307Z,11.61
2023-05-03T22:00:59.137Z,11.54
2023-05-03T22:03:27.176Z,11.44
2023-05-03T22:05:55.289Z,11.42
2023-05-03T22:08:23.231Z,11.37
2023-05-03T22:10:52.250Z,11.41
2023-05-03T22:13:20.159Z,11.36
2023-05-03T22:15:48.122Z,11.28
2023-05-03T22:18:16.479Z,11.32
2023-05-03T22:20:44.401Z,11.31
2023-05-03T22:23:14.510Z,11.26
2023-05-03T22:25:42.439Z,11.24
2023-05-03T22:28:10.303Z,11.18
2023-05-03T22:30:38.114Z,11.13
2023-05-03T22:33:06.634Z,11.05
2023-05-03T22:35:34.569Z,11.13
2023-05-03T22:38:02.416Z,11.11
2023-05-03T22:40:30.209Z,11.12
2023-05-03T22:42:58.288Z,11.11
2023-05-03T22:45:26.421Z,10.96
2023-05-03T22:47:54.397Z,11.07
2023-05-03T22:50:22.732Z,11.03
2023-05-03T22:52:50.658Z,10.92
2023-05-03T22:55:18.900Z,10.93
2023-05-03T22:57:46.783Z,11.02
2023-05-03T23:00:15.441Z,10.79
2023-05-03T23:02:43.405Z,10.91
2023-05-03T23:05:11.402Z,11.02
2023-05-03T23:07:39.296Z,10.81
2023-05-03T23:10:08.372Z,10.79
2023-05-03T23:12:36.495Z,10.88
2023-05-03T23:15:04.843Z,10.79
2023-05-03T23:17:32.815Z,10.87
2023-05-03T23:20:00.892Z,10.78
2023-05-03T23:22:28.764Z,10.88
2023-05-03T23:24:56.821Z,10.83
2023-05-03T23:27:24.669Z,10.76
2023-05-03T23:29:52.977Z,10.72
2023-05-03T23:32:21.212Z,10.67
2023-05-03T23:34:49.568Z,10.68
2023-05-03T23:37:17.408Z,10.59
2023-05-03T23:39:45.954Z,10.58
2023-05-03T23:42:13.969Z,10.72
2023-05-03T23:44:50.804Z,10.68
2023-05-03T23:47:21.511Z,10.60
2023-05-03T23:49:49.497Z,10.63
2023-05-03T23:52:19.156Z,10.50
2023-05-03T23:54:47.078Z,10.47
2023-05-03T23:57:15.397Z,10.43
2023-05-03T23:59:43.262Z,10.43
